createdAt,value
2022-12-29T00:00:14.375Z,1.02
2022-12-29T00:02:41.479Z,1.30
2022-12-29T00:05:08.771Z,1.58
2022-12-29T00:07:35.307Z,1.37
2022-12-29T00:10:01.892Z,1.50
2022-12-29T00:12:28.560Z,1.05
2022-12-29T00:14:55.103Z,1.10
2022-12-29T00:17:21.620Z,1.02
2022-12-29T00:19:48.165Z,1.52
2022-12-29T00:22:15.758Z,1.38
2022-12-29T00:24:42.523Z,1.15
2022-12-29T00:27:12.396Z,1.50
2022-12-29T00:29:39.028Z,1.70
2022-12-29T00:32:07.685Z,0.98
2022-12-29T00:34:34.244Z,1.15
2022-12-29T00:37:01.427Z,1.08
2022-12-29T00:39:27.988Z,1.03
2022-12-29T00:41:54.958Z,1.73
2022-12-29T00:44:21.411Z,0.80
2022-12-29T00:46:47.970Z,1.38
2022-12-29T00:49:14.998Z,1.50
2022-12-29T00:51:41.547Z,0.80
2022-12-29T00:54:08.490Z,1.00
2022-12-29T00:56:35.053Z,1.40
2022-12-29T00:59:02.977Z,1.10
2022-12-29T01:01:30.702Z,1.17
2022-12-29T01:04:02.000Z,1.00
2022-12-29T01:06:30.529Z,1.08
2022-12-29T01:08:57.121Z,1.00
2022-12-29T01:11:23.660Z,1.10
2022-12-29T01:13:50.151Z,1.05
2022-12-29T01:16:16.710Z,0.95
2022-12-29T01:21:11.460Z,0.80
2022-12-29T01:23:37.932Z,1.05
2022-12-29T01:26:11.665Z,1.70
2022-12-29T01:28:38.155Z,0.95
2022-12-29T01:31:04.836Z,1.25
2022-12-29T01:33:31.490Z,0.95
2022-12-29T01:36:10.196Z,1.33
2022-12-29T01:38:37.915Z,1.30
2022-12-29T01:41:06.176Z,1.10
2022-12-29T01:46:31.539Z,1.20
2022-12-29T01:49:06.003Z,1.13
2022-12-29T01:51:54.760Z,1.10
2022-12-29T01:54:28.927Z,1.13
2022-12-29T01:56:59.053Z,1.45
2022-12-29T01:59:35.693Z,1.33
2022-12-29T02:02:02.760Z,1.20
2022-12-29T02:04:32.339Z,0.90
2022-12-29T02:07:03.867Z,1.02
2022-12-29T02:09:31.458Z,1.08
2022-12-29T02:12:00.377Z,1.10
2022-12-29T02:14:27.096Z,1.05
2022-12-29T02:17:20.067Z,1.05
2022-12-29T02:20:27.933Z,0.90
2022-12-29T02:23:14.913Z,1.73
2022-12-29T02:26:10.853Z,1.27
2022-12-29T02:29:14.755Z,0.60
2022-12-29T02:31:56.885Z,1.02
2022-12-29T02:34:37.657Z,1.23
2022-12-29T02:37:31.858Z,0.60
2022-12-29T02:40:09.239Z,0.80
2022-12-29T02:43:00.404Z,1.40
2022-12-29T02:45:54.988Z,1.00
2022-12-29T02:48:38.864Z,1.10
2022-12-29T02:51:40.919Z,0.80
2022-12-29T02:54:07.893Z,0.75
2022-12-29T02:56:34.852Z,1.33
2022-12-29T02:59:02.429Z,1.40
2022-12-29T03:01:33.263Z,1.33
2022-12-29T03:04:03.001Z,1.17
2022-12-29T03:06:40.207Z,0.90
2022-12-29T03:09:32.817Z,1.13
2022-12-29T03:12:08.785Z,0.70
2022-12-29T03:15:09.657Z,1.00
2022-12-29T03:18:16.541Z,0.80
2022-12-29T03:20:53.463Z,0.60
2022-12-29T03:23:22.376Z,0.30
2022-12-29T03:25:54.834Z,0.77
2022-12-29T03:28:37.129Z,0.77
2022-12-29T03:31:05.548Z,0.43
2022-12-29T03:33:34.162Z,0.52
2022-12-29T03:36:06.670Z,0.63
2022-12-29T03:38:44.929Z,1.30
2022-12-29T03:41:17.379Z,0.73
2022-12-29T03:43:45.286Z,0.68
2022-12-29T03:46:12.005Z,0.77
2022-12-29T03:48:41.175Z,0.73
2022-12-29T03:51:08.948Z,0.80
2022-12-29T03:53:36.037Z,0.57
2022-12-29T03:56:03.099Z,0.60
2022-12-29T03:58:30.199Z,0.55
2022-12-29T04:01:02.444Z,0.50
2022-12-29T04:03:31.903Z,0.77
2022-12-29T04:05:58.670Z,0.38
2022-12-29T04:08:26.192Z,0.70
2022-12-29T04:10:52.821Z,0.50
2022-12-29T04:13:21.857Z,0.50
2022-12-29T04:15:48.414Z,0.70
2022-12-29T04:18:15.046Z,0.68
2022-12-29T04:20:41.824Z,0.50
2022-12-29T04:23:08.975Z,0.33
2022-12-29T04:25:37.409Z,0.52
2022-12-29T04:28:04.173Z,0.50
2022-12-29T04:30:49.136Z,1.65
2022-12-29T04:33:24.857Z,0.40
2022-12-29T04:35:51.565Z,0.52
2022-12-29T04:38:18.609Z,0.40
2022-12-29T04:40:47.254Z,0.57
2022-12-29T12:37:31.313Z,0.60
2022-12-29T12:40:24.658Z,1.00
2022-12-29T12:43:17.717Z,1.40
2022-12-29T12:46:07.062Z,0.60
2022-12-29T12:48:52.213Z,0.80
2022-12-29T12:51:41.997Z,1.10
2022-12-29T12:54:24.453Z,0.70
2022-12-29T12:57:15.689Z,0.50
2022-12-29T12:59:45.051Z,0.82
2022-12-29T13:02:33.032Z,0.75
2022-12-29T13:05:27.174Z,0.70
2022-12-29T13:08:18.399Z,0.57
2022-12-29T13:10:53.986Z,0.70
2022-12-29T13:13:30.281Z,0.50
2022-12-29T13:15:56.919Z,0.68
2022-12-29T13:18:46.874Z,0.77
2022-12-29T13:21:42.495Z,0.50
2022-12-29T13:24:33.461Z,0.70
2022-12-29T13:27:14.337Z,1.02
2022-12-29T13:30:04.863Z,0.55
2022-12-29T13:32:50.361Z,0.60
2022-12-29T13:35:37.729Z,0.80
2022-12-29T13:38:11.640Z,0.90
2022-12-29T13:40:42.705Z,0.73
2022-12-29T13:43:10.256Z,0.85
2022-12-29T13:45:37.286Z,0.63
2022-12-29T13:48:15.765Z,0.60
2022-12-29T13:50:43.982Z,0.32
2022-12-29T13:53:16.613Z,0.30
2022-12-29T13:56:07.128Z,0.47
2022-12-29T13:58:42.602Z,0.60
2022-12-29T14:01:26.058Z,0.30
2022-12-29T14:03:58.129Z,0.25
2022-12-29T14:06:26.363Z,0.50
2022-12-29T14:16:45.224Z,0.30
2022-12-29T14:19:22.235Z,0.40
2022-12-29T14:21:59.279Z,0.30
2022-12-29T14:24:28.911Z,0.52
2022-12-29T14:26:55.438Z,0.60
2022-12-29T14:29:24.531Z,0.70
2022-12-29T14:31:52.168Z,0.60
2022-12-29T14:34:18.618Z,1.30
2022-12-29T14:37:01.095Z,1.63
2022-12-29T14:39:45.188Z,2.40
2022-12-29T14:42:11.767Z,2.15
2022-12-29T14:45:04.255Z,1.67
2022-12-29T14:47:37.499Z,0.88
2022-12-29T14:50:22.357Z,1.00
2022-12-29T14:53:03.017Z,1.30
2022-12-29T14:55:41.755Z,1.10
2022-12-29T14:58:19.290Z,1.83
2022-12-29T15:00:46.587Z,1.30
2022-12-29T15:03:46.543Z,1.80
2022-12-29T15:06:15.765Z,1.40
2022-12-29T15:08:50.800Z,2.00
2022-12-29T15:11:42.812Z,1.90
2022-12-29T15:14:27.758Z,1.48
2022-12-29T15:16:54.338Z,2.38
2022-12-29T15:19:25.443Z,1.77
2022-12-29T15:21:54.002Z,1.65
2022-12-29T15:24:20.591Z,1.15
2022-12-29T15:26:50.306Z,1.40
2022-12-29T15:29:39.653Z,1.50
2022-12-29T15:32:26.765Z,1.60
2022-12-29T15:34:55.942Z,1.70
2022-12-29T15:37:34.210Z,2.53
2022-12-29T15:40:00.819Z,3.15
2022-12-29T15:42:42.549Z,2.53
2022-12-29T15:45:12.927Z,2.35
2022-12-29T15:47:41.327Z,1.85
2022-12-29T15:50:22.495Z,1.83
2022-12-29T15:52:49.272Z,1.65
2022-12-29T15:55:34.030Z,2.03
2022-12-29T15:58:03.269Z,2.03
2022-12-29T16:00:31.963Z,2.80
2022-12-29T16:03:01.873Z,2.17
2022-12-29T16:05:35.715Z,1.48
2022-12-29T16:08:03.785Z,1.25
2022-12-29T16:13:24.329Z,0.95
2022-12-29T16:15:55.889Z,0.80
2022-12-29T16:18:29.023Z,1.20
2022-12-29T16:20:57.546Z,5.72
2022-12-29T16:23:27.645Z,5.57
2022-12-29T16:25:56.377Z,12.02
2022-12-29T16:28:25.904Z,12.63
2022-12-29T16:31:02.740Z,6.70
2022-12-29T16:33:45.406Z,3.60
2022-12-29T16:36:32.208Z,2.95
2022-12-29T16:39:22.622Z,2.20
2022-12-29T16:41:50.020Z,1.35
2022-12-29T16:44:19.141Z,1.23
2022-12-29T16:47:01.229Z,1.00
2022-12-29T16:49:28.607Z,1.40
2022-12-29T16:51:55.936Z,0.93
2022-12-29T16:54:36.272Z,1.02
2022-12-29T16:57:03.482Z,1.20
2022-12-29T16:59:36.369Z,1.20
2022-12-29T17:02:09.264Z,0.93
2022-12-29T17:04:36.032Z,1.30
2022-12-29T17:07:02.740Z,1.10
2022-12-29T17:09:29.651Z,0.93
2022-12-29T17:12:04.988Z,0.73
2022-12-29T17:14:39.465Z,1.25
2022-12-29T17:17:31.105Z,2.03
2022-12-29T17:20:01.745Z,1.95
2022-12-29T17:22:28.762Z,2.30
2022-12-29T17:24:58.623Z,2.35
2022-12-29T17:27:27.158Z,2.35
2022-12-29T17:29:57.276Z,2.88
2022-12-29T17:32:24.118Z,2.88
2022-12-29T17:34:50.641Z,2.50
2022-12-29T17:37:29.472Z,2.45
2022-12-29T17:39:56.253Z,2.42
2022-12-29T17:42:23.069Z,3.13
2022-12-29T17:44:49.833Z,4.00
2022-12-29T17:47:16.686Z,5.03
2022-12-29T17:49:43.928Z,5.20
2022-12-29T17:52:10.889Z,6.40
2022-12-29T17:54:38.157Z,10.52
2022-12-29T17:57:04.757Z,13.30
2022-12-29T17:59:31.335Z,11.88
2022-12-29T18:01:58.790Z,9.60
2022-12-29T18:04:25.443Z,7.68
2022-12-29T18:06:51.884Z,6.78
2022-12-29T18:09:18.543Z,6.85
2022-12-29T18:11:45.444Z,5.05
2022-12-29T18:14:16.553Z,4.78
2022-12-29T18:16:44.012Z,3.95
2022-12-29T18:19:10.507Z,3.43
2022-12-29T18:21:39.631Z,2.80
2022-12-29T18:24:06.564Z,3.97
2022-12-29T18:26:33.033Z,6.13
2022-12-29T18:28:59.785Z,4.00
2022-12-29T18:31:28.962Z,4.88
2022-12-29T18:33:58.054Z,4.63
2022-12-29T18:36:25.439Z,4.82
2022-12-29T18:38:52.476Z,4.60
2022-12-29T18:41:22.379Z,4.82
2022-12-29T18:43:49.399Z,5.07
2022-12-29T18:46:22.316Z,5.13
2022-12-29T18:48:50.802Z,4.20
2022-12-29T18:51:20.163Z,4.87
2022-12-29T18:53:47.444Z,4.30
2022-12-29T18:56:14.308Z,3.60
2022-12-29T18:58:40.969Z,3.60
2022-12-29T19:01:24.449Z,3.00
2022-12-29T19:03:51.591Z,3.60
2022-12-29T19:06:19.579Z,3.05
2022-12-29T19:08:46.182Z,3.70
2022-12-29T19:11:12.741Z,3.30
2022-12-29T19:13:39.449Z,2.97
2022-12-29T19:16:07.410Z,3.30
2022-12-29T19:19:05.722Z,3.35
2022-12-29T19:21:23.120Z,3.72
2022-12-29T19:23:49.710Z,3.70
2022-12-29T19:26:29.395Z,3.45
2022-12-29T19:28:56.057Z,3.55
2022-12-29T19:31:22.995Z,3.20
2022-12-29T19:33:49.679Z,2.90
2022-12-29T19:36:16.762Z,3.22
2022-12-29T19:38:43.427Z,3.00
2022-12-29T19:41:10.038Z,2.80
2022-12-29T19:43:36.637Z,2.28
2022-12-29T19:46:08.450Z,3.40
2022-12-29T19:48:34.977Z,3.00
2022-12-29T19:51:10.766Z,1.92
2022-12-29T19:53:37.671Z,1.77
2022-12-29T19:56:06.575Z,1.73
2022-12-29T19:58:35.059Z,1.38
2022-12-29T20:01:26.294Z,1.25
2022-12-29T20:03:53.124Z,1.20
2022-12-29T20:06:20.271Z,1.10
2022-12-29T20:08:46.908Z,1.20
2022-12-29T20:11:16.787Z,1.42
2022-12-29T20:13:44.179Z,1.58
2022-12-29T20:16:16.475Z,2.30
2022-12-29T20:18:43.742Z,1.73
2022-12-29T20:21:16.252Z,1.40
2022-12-29T20:23:43.896Z,1.85
2022-12-29T20:26:19.938Z,1.35
2022-12-29T20:28:46.648Z,1.40
2022-12-29T20:31:29.633Z,1.40
2022-12-29T20:33:56.316Z,1.60
2022-12-29T20:36:26.924Z,1.70
2022-12-29T20:38:55.206Z,2.00
2022-12-29T20:41:21.981Z,2.00
2022-12-29T20:43:49.010Z,2.50
2022-12-29T20:46:20.486Z,1.70
2022-12-29T20:48:48.590Z,1.25
2022-12-29T20:51:15.162Z,1.15
2022-12-29T20:53:41.779Z,0.95
2022-12-29T20:56:16.820Z,0.85
2022-12-29T20:59:08.607Z,0.90
2022-12-29T21:01:31.044Z,1.20
2022-12-29T21:03:57.795Z,0.97
2022-12-29T21:06:24.335Z,1.15
2022-12-29T21:08:51.835Z,1.10
2022-12-29T21:11:18.975Z,0.68
2022-12-29T21:13:45.513Z,0.80
2022-12-29T21:16:13.957Z,0.90
2022-12-29T21:18:40.700Z,1.08
2022-12-29T21:21:14.692Z,1.25
2022-12-29T21:23:41.195Z,1.20
2022-12-29T21:26:12.055Z,1.63
2022-12-29T21:28:39.321Z,1.50
2022-12-29T21:31:11.654Z,0.90
2022-12-29T21:33:38.172Z,1.10
2022-12-29T21:36:06.588Z,1.10
2022-12-29T21:38:33.313Z,1.08
2022-12-29T21:41:10.707Z,0.85
2022-12-29T21:43:37.656Z,1.08
2022-12-29T21:46:05.188Z,1.13
2022-12-29T21:48:32.174Z,1.25
2022-12-29T21:51:09.856Z,1.65
2022-12-29T21:53:39.468Z,1.08
2022-12-29T21:56:17.780Z,1.30
2022-12-29T21:58:46.745Z,1.05
2022-12-29T22:01:14.365Z,0.90
2022-12-29T22:03:40.949Z,1.02
2022-12-29T22:06:11.243Z,0.70
2022-12-29T22:08:38.841Z,1.00
2022-12-29T22:11:09.097Z,1.63
2022-12-29T22:13:37.852Z,0.90
2022-12-29T22:16:06.564Z,1.33
2022-12-29T22:18:33.899Z,1.30
2022-12-29T22:21:08.432Z,1.50
2022-12-29T22:23:36.953Z,1.02
2022-12-29T22:26:08.297Z,1.60
2022-12-29T22:28:36.362Z,0.80
2022-12-29T22:33:29.605Z,0.95
2022-12-29T22:35:56.176Z,1.02
2022-12-29T22:38:22.702Z,1.00
2022-12-29T22:40:49.260Z,1.00
2022-12-29T22:43:15.863Z,1.30
2022-12-29T22:45:42.445Z,1.10
2022-12-29T22:48:09.182Z,1.00
2022-12-29T22:50:39.111Z,0.90
2022-12-29T22:53:05.590Z,0.63
2022-12-29T22:55:32.069Z,0.82
2022-12-29T22:57:58.567Z,1.10
2022-12-29T23:00:25.036Z,0.90
2022-12-29T23:02:51.769Z,0.85
2022-12-29T23:05:18.466Z,0.85
2022-12-29T23:07:45.018Z,0.93
2022-12-29T23:10:11.533Z,1.48
2022-12-29T23:12:38.079Z,1.95
2022-12-29T23:15:05.197Z,1.90
2022-12-29T23:17:31.712Z,1.20
2022-12-29T23:19:58.196Z,1.15
2022-12-29T23:22:24.797Z,1.42
2022-12-29T23:24:51.315Z,1.40
2022-12-29T23:27:17.884Z,1.10
2022-12-29T23:29:44.369Z,1.02
2022-12-29T23:32:11.011Z,1.10
2022-12-29T23:34:37.548Z,1.00
2022-12-29T23:37:04.077Z,0.73
2022-12-29T23:39:30.609Z,0.98
2022-12-29T23:41:57.651Z,0.75
2022-12-29T23:44:24.299Z,0.82
2022-12-29T23:46:50.960Z,1.10
2022-12-29T23:49:17.581Z,0.55
2022-12-29T23:51:44.228Z,0.70
2022-12-29T23:54:10.738Z,0.80
2022-12-29T23:56:37.359Z,0.60
2022-12-29T23:59:05.343Z,0.73
